Time;durP1;ratioP1;P1;durP2;ratioP2;P2;SDS_P1;SDS_P2;PMS_P1;PMS_P2;Temp;Humidity;BMP_temperature;BMP_pressure;BME280_temperature;BME280_humidity;BME280_pressure;Samples;Min_cycle;Max_cycle;Signal;HPM_P1;HPM_P2
2022/09/07 00:01:14;;;;;;;;;;;18.10;99.90;;;;;;4214994;28;19924;-65
2022/09/07 00:03:16;;;;;;;;;;;17.90;99.90;;;;;;4214766;28;19931;-64
2022/09/07 00:05:19;;;;;;;;;;;17.90;99.90;;;;;;4214693;28;20027;-65
2022/09/07 00:07:23;;;;;;;;;;;17.90;99.90;;;;;;4214974;28;20331;-65
2022/09/07 00:09:42;;;;;;;;;;;17.80;99.90;;;;;;4218770;28;19930;-65
2022/09/07 00:11:45;;;;;;;;;;;18.00;99.90;;;;;;4231252;27;20367;-64
2022/09/07 00:13:48;;;;;;;;;;;18.00;99.90;;;;;;4214947;27;20018;-65
2022/09/07 00:15:52;;;;;;;;;;;18.00;99.90;;;;;;4214426;28;19939;-66
2022/09/07 00:17:56;;;;;;;;;;;17.90;99.90;;;;;;4214610;28;19928;-66
2022/09/07 00:20:00;;;;;;;;;;;17.80;99.90;;;;;;4214700;28;19934;-66
2022/09/07 00:22:03;;;;;;;;;;;17.70;99.90;;;;;;4214342;28;19924;-65
2022/09/07 00:24:14;;;;;;;;;;;17.70;99.90;;;;;;4214602;28;19928;-65
2022/09/07 00:26:18;;;;;;;;;;;17.80;99.90;;;;;;4200630;28;19924;-65
2022/09/07 00:28:22;;;;;;;;;;;17.70;99.90;;;;;;4198027;28;19932;-65
2022/09/07 00:30:26;;;;;;;;;;;17.70;99.90;;;;;;4197724;28;20273;-66
2022/09/07 00:32:28;;;;;;;;;;;17.80;99.90;;;;;;4197373;28;20357;-66
2022/09/07 00:34:31;;;;;;;;;;;17.80;99.90;;;;;;4197746;28;19924;-66
2022/09/07 00:36:35;;;;;;;;;;;17.70;99.90;;;;;;4197644;28;19924;-65
2022/09/07 00:38:39;;;;;;;;;;;17.80;99.90;;;;;;4197772;28;19931;-65
2022/09/07 00:40:41;;;;;;;;;;;17.60;99.90;;;;;;4197847;28;20112;-64
2022/09/07 00:42:44;;;;;;;;;;;17.50;99.90;;;;;;4197558;28;20011;-63
2022/09/07 00:45:08;;;;;;;;;;;17.50;99.90;;;;;;4196783;28;19931;-64
2022/09/07 00:47:21;;;;;;;;;;;17.50;99.90;;;;;;4203279;28;19955;-65
2022/09/07 00:49:24;;;;;;;;;;;17.30;99.90;;;;;;4214214;28;19928;-65
2022/09/07 00:51:32;;;;;;;;;;;17.30;99.90;;;;;;4213825;28;19928;-65
2022/09/07 00:53:54;;;;;;;;;;;17.10;99.90;;;;;;4214280;28;19936;-63
2022/09/07 00:55:58;;;;;;;;;;;17.20;99.90;;;;;;4214289;28;20145;-65
2022/09/07 00:58:01;;;;;;;;;;;17.30;99.90;;;;;;4214336;28;19928;-65
2022/09/07 01:00:05;;;;;;;;;;;17.30;99.90;;;;;;4213735;28;20402;-63
2022/09/07 01:02:07;;;;;;;;;;;17.30;99.90;;;;;;4214207;28;20363;-65
2022/09/07 01:04:10;;;;;;;;;;;17.30;99.90;;;;;;4213894;28;20306;-65
2022/09/07 01:06:34;;;;;;;;;;;17.40;99.90;;;;;;4222722;28;20018;-65
2022/09/07 01:08:36;;;;;;;;;;;17.40;99.90;;;;;;4230952;27;19928;-65
2022/09/07 01:10:39;;;;;;;;;;;17.30;99.90;;;;;;4230600;27;20351;-64
2022/09/07 01:12:41;;;;;;;;;;;17.20;99.90;;;;;;4230878;28;19963;-65
2022/09/07 01:14:45;;;;;;;;;;;17.20;99.90;;;;;;4231009;27;19928;-65
2022/09/07 01:16:53;;;;;;;;;;;17.20;99.90;;;;;;4230478;27;19963;-63
2022/09/07 01:19:04;;;;;;;;;;;17.20;99.90;;;;;;4229354;28;19970;-65
2022/09/07 01:21:15;;;;;;;;;;;17.10;99.90;;;;;;4228095;28;19930;-64
2022/09/07 01:23:19;;;;;;;;;;;17.10;99.90;;;;;;4213565;28;19928;-64
2022/09/07 01:25:30;;;;;;;;;;;17.00;99.90;;;;;;4212224;28;19982;-65
2022/09/07 01:27:35;;;;;;;;;;;17.00;99.90;;;;;;4213611;28;19934;-65
2022/09/07 01:29:52;;;;;;;;;;;16.90;99.90;;;;;;4213591;28;19932;-65
2022/09/07 01:31:57;;;;;;;;;;;16.90;99.90;;;;;;4212908;28;19970;-64
2022/09/07 01:34:09;;;;;;;;;;;16.90;99.90;;;;;;4213290;28;20352;-66
2022/09/07 01:36:14;;;;;;;;;;;16.80;99.90;;;;;;4213492;28;19928;-65
2022/09/07 01:38:23;;;;;;;;;;;16.70;99.90;;;;;;4213347;28;20004;-65
2022/09/07 01:40:30;;;;;;;;;;;16.70;99.90;;;;;;4213454;28;19935;-65
2022/09/07 01:42:54;;;;;;;;;;;16.60;99.90;;;;;;4213008;28;19928;-64
2022/09/07 01:44:59;;;;;;;;;;;16.60;99.90;;;;;;4213065;28;19928;-65
2022/09/07 01:47:06;;;;;;;;;;;16.50;99.90;;;;;;4212589;28;19994;-65
2022/09/07 01:49:10;;;;;;;;;;;16.50;99.90;;;;;;4213423;28;19924;-64
2022/09/07 01:51:12;;;;;;;;;;;16.50;99.90;;;;;;4213195;28;20405;-64
2022/09/07 01:53:14;;;;;;;;;;;16.40;99.90;;;;;;4212833;28;20010;-65
2022/09/07 01:55:20;;;;;;;;;;;16.30;99.90;;;;;;4213224;28;19928;-65
2022/09/07 01:57:27;;;;;;;;;;;16.30;99.90;;;;;;4212566;28;19974;-64
2022/09/07 01:59:35;;;;;;;;;;;16.30;99.90;;;;;;4213230;28;19935;-65
2022/09/07 02:01:46;;;;;;;;;;;16.40;99.90;;;;;;4213229;28;19931;-65
2022/09/07 02:03:50;;;;;;;;;;;16.30;99.90;;;;;;4208792;28;19924;-64
2022/09/07 02:06:28;;;;;;;;;;;16.40;99.90;;;;;;4212946;28;19932;-64
2022/09/07 02:08:34;;;;;;;;;;;16.30;99.90;;;;;;4177324;28;19925;-64
2022/09/07 02:10:37;;;;;;;;;;;16.20;99.90;;;;;;4198496;28;20440;-64
2022/09/07 02:12:42;;;;;;;;;;;16.20;99.90;;;;;;4212493;28;20028;-65
2022/09/07 02:14:46;;;;;;;;;;;16.20;99.90;;;;;;4211763;28;20317;-64
2022/09/07 02:17:02;;;;;;;;;;;16.20;99.90;;;;;;4212614;28;19928;-63
2022/09/07 02:19:07;;;;;;;;;;;16.40;99.90;;;;;;4212530;28;20022;-64
2022/09/07 02:21:09;;;;;;;;;;;16.50;99.90;;;;;;4212697;28;19939;-63
2022/09/07 02:23:18;;;;;;;;;;;16.70;99.90;;;;;;4212735;28;19935;-64
2022/09/07 02:25:22;;;;;;;;;;;16.80;99.90;;;;;;4212610;28;19971;-65
2022/09/07 02:27:43;;;;;;;;;;;16.90;99.90;;;;;;4212708;28;20399;-65
2022/09/07 02:29:45;;;;;;;;;;;16.70;99.90;;;;;;4212659;28;19973;-64
2022/09/07 02:31:50;;;;;;;;;;;16.50;99.90;;;;;;4204312;28;20457;-65
2022/09/07 02:33:53;;;;;;;;;;;16.60;99.90;;;;;;4195685;28;19928;-65
2022/09/07 02:35:55;;;;;;;;;;;16.40;99.90;;;;;;4209772;28;19924;-64
2022/09/07 02:37:58;;;;;;;;;;;16.40;99.90;;;;;;4212720;28;19978;-65
2022/09/07 02:40:00;;;;;;;;;;;16.30;99.90;;;;;;4212659;28;20383;-65
2022/09/07 02:42:03;;;;;;;;;;;16.30;99.90;;;;;;4212230;28;19932;-65
2022/09/07 02:44:11;;;;;;;;;;;16.10;99.90;;;;;;4212135;28;20502;-65
2022/09/07 02:46:16;;;;;;;;;;;16.10;99.90;;;;;;4212030;28;20352;-65
2022/09/07 02:48:21;;;;;;;;;;;16.10;99.90;;;;;;4211681;28;19928;-64
2022/09/07 02:50:35;;;;;;;;;;;16.20;99.90;;;;;;4212104;28;20409;-65
2022/09/07 02:52:49;;;;;;;;;;;16.30;99.90;;;;;;4212282;28;19963;-63
2022/09/07 02:55:12;;;;;;;;;;;16.30;99.90;;;;;;4212222;28;19928;-64
2022/09/07 02:57:37;;;;;;;;;;;16.30;99.90;;;;;;4212351;28;20446;-65
2022/09/07 02:59:51;;;;;;;;;;;16.30;99.90;;;;;;4221024;28;20015;-64
2022/09/07 03:02:05;;;;;;;;;;;16.30;99.90;;;;;;4194425;28;19974;-65
2022/09/07 03:04:24;;;;;;;;;;;16.10;99.90;;;;;;4205752;28;20404;-64
2022/09/07 03:06:41;;;;;;;;;;;15.90;99.90;;;;;;4208585;28;19928;-64
2022/09/07 03:08:46;;;;;;;;;;;16.00;99.90;;;;;;4197625;28;19932;-64
2022/09/07 03:10:48;;;;;;;;;;;16.00;99.90;;;;;;4211482;28;19936;-64
2022/09/07 03:12:50;;;;;;;;;;;16.10;99.90;;;;;;4215514;28;19990;-65
2022/09/07 03:14:52;;;;;;;;;;;16.00;99.90;;;;;;4215831;28;19924;-65
2022/09/07 03:16:55;;;;;;;;;;;15.90;99.90;;;;;;4215446;28;19928;-61
2022/09/07 03:19:00;;;;;;;;;;;15.90;99.90;;;;;;4215605;28;20440;-64
2022/09/07 03:21:03;;;;;;;;;;;15.90;99.90;;;;;;4215841;28;19970;-65
2022/09/07 03:23:06;;;;;;;;;;;15.90;99.90;;;;;;4215778;28;19924;-65
2022/09/07 03:25:09;;;;;;;;;;;15.90;99.90;;;;;;4214291;28;19940;-64
2022/09/07 03:27:11;;;;;;;;;;;15.80;99.90;;;;;;4215304;28;19990;-64
2022/09/07 03:29:14;;;;;;;;;;;15.80;99.90;;;;;;4215127;28;19982;-64
2022/09/07 03:31:16;;;;;;;;;;;15.70;99.90;;;;;;4215318;28;19954;-65
2022/09/07 03:33:20;;;;;;;;;;;15.60;99.90;;;;;;4215375;28;19966;-65
2022/09/07 03:35:23;;;;;;;;;;;15.70;99.90;;;;;;4215170;28;19932;-64
2022/09/07 03:37:27;;;;;;;;;;;15.70;99.90;;;;;;4215369;28;19928;-64
2022/09/07 03:39:31;;;;;;;;;;;15.70;99.90;;;;;;4214958;28;20493;-64
2022/09/07 03:41:35;;;;;;;;;;;15.70;99.90;;;;;;4211649;28;19928;-64
2022/09/07 03:43:37;;;;;;;;;;;15.70;99.90;;;;;;4198458;28;19925;-63
2022/09/07 03:45:39;;;;;;;;;;;15.80;99.90;;;;;;4208786;28;19954;-64
2022/09/07 03:47:41;;;;;;;;;;;15.70;99.90;;;;;;4214863;28;19932;-64
2022/09/07 03:49:45;;;;;;;;;;;15.60;99.90;;;;;;4215604;28;19928;-64
2022/09/07 03:51:52;;;;;;;;;;;15.30;99.90;;;;;;4215221;28;19977;-64
2022/09/07 03:53:56;;;;;;;;;;;15.10;99.90;;;;;;4214849;28;19924;-64
2022/09/07 03:56:00;;;;;;;;;;;15.10;99.90;;;;;;4227875;28;19963;-64
2022/09/07 03:58:04;;;;;;;;;;;15.20;99.90;;;;;;4224335;27;19943;-64
2022/09/07 04:00:06;;;;;;;;;;;15.40;99.90;;;;;;4214971;28;19924;-64
2022/09/07 04:02:08;;;;;;;;;;;15.40;99.90;;;;;;4214693;28;19928;-63
2022/09/07 04:04:10;;;;;;;;;;;15.40;99.90;;;;;;4215047;28;19924;-64
2022/09/07 04:06:13;;;;;;;;;;;15.50;99.90;;;;;;4214624;28;20267;-64
2022/09/07 04:08:15;;;;;;;;;;;15.60;99.90;;;;;;4214812;28;20307;-63
2022/09/07 04:10:16;;;;;;;;;;;15.70;99.90;;;;;;4214423;28;20369;-64
2022/09/07 04:12:31;;;;;;;;;;;15.80;99.90;;;;;;4213208;28;19923;-64
2022/09/07 04:14:34;;;;;;;;;;;15.70;99.90;;;;;;4214627;28;19959;-64
2022/09/07 04:16:36;;;;;;;;;;;15.80;99.90;;;;;;4214561;28;19930;-63
2022/09/07 04:18:38;;;;;;;;;;;15.80;99.90;;;;;;4214935;28;20022;-63
2022/09/07 04:20:40;;;;;;;;;;;15.80;99.90;;;;;;4213108;28;19924;-64
2022/09/07 04:22:46;;;;;;;;;;;15.80;99.90;;;;;;4214735;28;19932;-64
2022/09/07 04:24:52;;;;;;;;;;;15.70;99.90;;;;;;4214654;28;19924;-64
2022/09/07 04:26:58;;;;;;;;;;;15.80;99.90;;;;;;4214504;28;19924;-63
2022/09/07 04:29:03;;;;;;;;;;;15.70;99.90;;;;;;4213025;28;20342;-64
2022/09/07 04:31:05;;;;;;;;;;;15.60;99.90;;;;;;4200880;28;20356;-64
2022/09/07 04:33:08;;;;;;;;;;;15.50;99.90;;;;;;4205142;28;19950;-63
2022/09/07 04:35:12;;;;;;;;;;;15.60;99.90;;;;;;4213961;28;20015;-64
2022/09/07 04:37:19;;;;;;;;;;;15.60;99.90;;;;;;4219936;28;19969;-64
2022/09/07 04:39:23;;;;;;;;;;;15.60;99.90;;;;;;4207780;28;19931;-64
2022/09/07 04:41:28;;;;;;;;;;;15.50;99.90;;;;;;4197651;28;19924;-64
2022/09/07 04:43:31;;;;;;;;;;;15.40;99.90;;;;;;4211699;28;20343;-65
2022/09/07 04:45:38;;;;;;;;;;;15.30;99.90;;;;;;4214086;28;20341;-64
2022/09/07 04:47:45;;;;;;;;;;;15.30;99.90;;;;;;4213898;28;20379;-64
2022/09/07 04:49:51;;;;;;;;;;;15.20;99.90;;;;;;4213379;28;20002;-63
2022/09/07 04:51:54;;;;;;;;;;;15.30;99.90;;;;;;4217537;28;19932;-63
2022/09/07 04:53:57;;;;;;;;;;;15.50;99.90;;;;;;4213964;28;19932;-63
2022/09/07 04:56:01;;;;;;;;;;;15.40;99.90;;;;;;4213237;28;20387;-63
2022/09/07 04:58:04;;;;;;;;;;;15.40;99.90;;;;;;4204323;28;20309;-64
2022/09/07 05:00:09;;;;;;;;;;;15.40;99.90;;;;;;4213687;28;19932;-63
2022/09/07 05:02:22;;;;;;;;;;;15.30;99.90;;;;;;4213819;27;19928;-64
2022/09/07 05:04:24;;;;;;;;;;;15.50;99.90;;;;;;4214195;28;19947;-64
2022/09/07 05:06:34;;;;;;;;;;;15.60;99.90;;;;;;4213868;28;19924;-64
2022/09/07 05:08:38;;;;;;;;;;;15.50;99.90;;;;;;4213713;28;19930;-63
2022/09/07 05:10:49;;;;;;;;;;;15.50;99.90;;;;;;4213825;28;20449;-63
2022/09/07 05:12:56;;;;;;;;;;;15.60;99.90;;;;;;4214099;28;19931;-64
2022/09/07 05:15:00;;;;;;;;;;;15.70;99.90;;;;;;4213476;28;19977;-63
2022/09/07 05:17:03;;;;;;;;;;;15.60;99.90;;;;;;4213469;28;19928;-63
2022/09/07 05:19:06;;;;;;;;;;;15.60;99.90;;;;;;4213983;28;19928;-64
2022/09/07 05:21:15;;;;;;;;;;;15.60;99.90;;;;;;4186151;28;20473;-63
2022/09/07 05:23:17;;;;;;;;;;;15.60;99.90;;;;;;4212787;28;19924;-64
2022/09/07 05:25:21;;;;;;;;;;;15.60;99.90;;;;;;4211744;28;19982;-61
2022/09/07 05:27:26;;;;;;;;;;;15.50;99.90;;;;;;4213263;28;20094;-61
2022/09/07 05:29:30;;;;;;;;;;;15.60;99.90;;;;;;4213562;28;20399;-60
2022/09/07 05:31:53;;;;;;;;;;;15.60;99.90;;;;;;4197592;28;19928;-61
2022/09/07 05:33:57;;;;;;;;;;;15.60;99.90;;;;;;4213070;28;20187;-61
2022/09/07 05:36:21;;;;;;;;;;;15.70;99.90;;;;;;4202416;28;19995;-61
2022/09/07 05:38:26;;;;;;;;;;;15.80;99.90;;;;;;4213400;28;20401;-61
2022/09/07 05:40:30;;;;;;;;;;;15.90;99.90;;;;;;4213161;28;19935;-61
2022/09/07 05:42:34;;;;;;;;;;;15.90;99.90;;;;;;4212880;28;20403;-61
2022/09/07 05:44:39;;;;;;;;;;;16.00;99.90;;;;;;4213103;28;19931;-61
2022/09/07 05:46:47;;;;;;;;;;;16.10;99.90;;;;;;4211944;28;19928;-61
2022/09/07 05:48:50;;;;;;;;;;;16.10;99.90;;;;;;4229426;27;19959;-61
2022/09/07 05:50:53;;;;;;;;;;;16.20;99.90;;;;;;4213087;28;19932;-61
2022/09/07 05:52:57;;;;;;;;;;;16.20;99.90;;;;;;4213052;28;20009;-61
2022/09/07 05:55:00;;;;;;;;;;;16.30;99.90;;;;;;4213130;28;20277;-61
2022/09/07 05:57:20;;;;;;;;;;;16.30;99.90;;;;;;4196052;28;19928;-61
2022/09/07 05:59:26;;;;;;;;;;;16.30;99.90;;;;;;4205526;28;19997;-60
2022/09/07 06:01:30;;;;;;;;;;;16.30;99.90;;;;;;4213089;28;19924;-61
2022/09/07 06:03:34;;;;;;;;;;;16.30;99.90;;;;;;4196433;28;20453;-61
2022/09/07 06:05:36;;;;;;;;;;;16.20;99.90;;;;;;4209287;28;20463;-61
2022/09/07 06:07:39;;;;;;;;;;;16.20;99.90;;;;;;4213265;28;19924;-61
2022/09/07 06:09:42;;;;;;;;;;;16.30;99.90;;;;;;4212786;28;20027;-61
2022/09/07 06:12:14;;;;;;;;;;;16.40;99.90;;;;;;4212617;28;19932;-61
2022/09/07 06:14:16;;;;;;;;;;;16.50;99.90;;;;;;4212702;28;20015;-61
2022/09/07 06:16:34;;;;;;;;;;;16.50;99.90;;;;;;4218510;28;19974;-61
2022/09/07 06:18:39;;;;;;;;;;;16.60;99.90;;;;;;4211185;28;19928;-61
2022/09/07 06:20:42;;;;;;;;;;;16.60;99.90;;;;;;4209983;28;19928;-61
2022/09/07 06:22:47;;;;;;;;;;;16.60;99.90;;;;;;4212388;28;19936;-61
2022/09/07 06:24:49;;;;;;;;;;;16.70;99.90;;;;;;4212560;27;20347;-61
2022/09/07 06:26:53;;;;;;;;;;;16.90;99.90;;;;;;4212048;28;19930;-62
2022/09/07 06:29:16;;;;;;;;;;;16.90;99.90;;;;;;4195975;28;19978;-61
2022/09/07 06:31:20;;;;;;;;;;;16.90;99.90;;;;;;4204284;28;19924;-61
2022/09/07 06:33:43;;;;;;;;;;;16.90;99.90;;;;;;4212218;28;19931;-61
2022/09/07 06:35:53;;;;;;;;;;;17.00;99.90;;;;;;4212604;28;19928;-61
2022/09/07 06:37:56;;;;;;;;;;;17.00;99.90;;;;;;4210880;28;19928;-60
2022/09/07 06:39:59;;;;;;;;;;;17.00;99.90;;;;;;4212297;28;19927;-61
2022/09/07 06:42:05;;;;;;;;;;;17.00;99.90;;;;;;4212147;28;20012;-61
2022/09/07 06:44:07;;;;;;;;;;;17.20;99.90;;;;;;4202743;28;19924;-62
2022/09/07 06:46:14;;;;;;;;;;;17.20;99.90;;;;;;4196109;28;19946;-61
2022/09/07 06:48:37;;;;;;;;;;;17.30;99.90;;;;;;4195907;28;19928;-62
2022/09/07 06:50:59;;;;;;;;;;;17.40;99.90;;;;;;4207874;28;19958;-62
2022/09/07 06:53:01;;;;;;;;;;;17.50;99.90;;;;;;4203075;28;19928;-62
2022/09/07 06:55:26;;;;;;;;;;;17.50;99.90;;;;;;4211992;28;19928;-62
2022/09/07 06:57:44;;;;;;;;;;;17.80;99.90;;;;;;4210767;28;19939;-61
2022/09/07 06:59:55;;;;;;;;;;;17.90;99.90;;;;;;4211704;28;20022;-61
2022/09/07 07:02:01;;;;;;;;;;;18.10;99.90;;;;;;4210983;28;19970;-62
2022/09/07 07:04:07;;;;;;;;;;;18.20;99.90;;;;;;4211940;28;19985;-62
2022/09/07 07:06:14;;;;;;;;;;;18.40;99.90;;;;;;4212641;28;19928;-62
2022/09/07 07:08:16;;;;;;;;;;;18.60;99.90;;;;;;4212510;28;20370;-63
2022/09/07 07:10:20;;;;;;;;;;;18.60;99.90;;;;;;4212531;28;19928;-63
2022/09/07 07:12:27;;;;;;;;;;;18.80;99.90;;;;;;4212419;28;19932;-62
2022/09/07 07:14:30;;;;;;;;;;;19.30;99.90;;;;;;4212152;28;19973;-62
2022/09/07 07:16:36;;;;;;;;;;;19.30;99.90;;;;;;4210674;28;19978;-61
2022/09/07 07:18:40;;;;;;;;;;;19.40;99.90;;;;;;4212222;28;20015;-62
2022/09/07 07:20:44;;;;;;;;;;;19.50;99.90;;;;;;4211858;28;20375;-62
2022/09/07 07:22:52;;;;;;;;;;;19.60;99.90;;;;;;4212380;28;19928;-62
2022/09/07 07:24:58;;;;;;;;;;;19.70;99.90;;;;;;4212263;28;19928;-62
2022/09/07 07:27:00;;;;;;;;;;;19.50;99.90;;;;;;4212242;28;19924;-62
2022/09/07 07:29:04;;;;;;;;;;;19.60;99.90;;;;;;4212271;28;20383;-63
2022/09/07 07:31:06;;;;;;;;;;;19.80;99.90;;;;;;4211982;28;20023;-63
2022/09/07 07:33:12;;;;;;;;;;;20.00;99.90;;;;;;4209255;28;19928;-62
2022/09/07 07:35:15;;;;;;;;;;;20.10;99.90;;;;;;4203848;28;19936;-62
2022/09/07 07:37:17;;;;;;;;;;;20.30;99.90;;;;;;4202987;28;19928;-62
2022/09/07 07:39:20;;;;;;;;;;;20.40;99.90;;;;;;4212923;28;19931;-63
2022/09/07 07:41:45;;;;;;;;;;;20.40;99.90;;;;;;4226157;27;20014;-62
2022/09/07 07:43:59;;;;;;;;;;;20.50;99.90;;;;;;4207962;28;19963;-62
2022/09/07 07:46:02;;;;;;;;;;;20.80;99.90;;;;;;4213474;28;19928;-62
2022/09/07 07:48:15;;;;;;;;;;;21.00;99.90;;;;;;4203537;28;19925;-62
2022/09/07 07:50:18;;;;;;;;;;;21.00;99.90;;;;;;4205369;28;19985;-62
2022/09/07 07:52:37;;;;;;;;;;;21.00;99.90;;;;;;4204011;28;20277;-61
2022/09/07 07:55:04;;;;;;;;;;;21.20;99.90;;;;;;4201945;28;19958;-62
2022/09/07 07:57:27;;;;;;;;;;;21.30;99.90;;;;;;4200102;28;19934;-62
2022/09/07 07:59:32;;;;;;;;;;;21.50;99.90;;;;;;4207465;28;19923;-63
2022/09/07 08:01:35;;;;;;;;;;;21.50;99.90;;;;;;4213683;28;19935;-63
2022/09/07 08:03:46;;;;;;;;;;;21.60;99.90;;;;;;4215062;28;19931;-61
2022/09/07 08:05:49;;;;;;;;;;;21.70;99.90;;;;;;4214715;28;19997;-62
2022/09/07 08:07:52;;;;;;;;;;;21.80;99.90;;;;;;4214253;28;19953;-62
2022/09/07 08:09:55;;;;;;;;;;;22.00;99.90;;;;;;4214548;28;20325;-62
2022/09/07 08:11:58;;;;;;;;;;;22.10;99.90;;;;;;4204949;28;20625;-63
2022/09/07 08:14:04;;;;;;;;;;;22.20;99.90;;;;;;4201466;28;19924;-62
2022/09/07 08:16:08;;;;;;;;;;;22.30;99.90;;;;;;4213781;28;20023;-62
2022/09/07 08:18:13;;;;;;;;;;;22.40;99.90;;;;;;4213668;28;19935;-62
2022/09/07 08:20:16;;;;;;;;;;;22.60;99.90;;;;;;4209441;28;19935;-62
2022/09/07 08:22:19;;;;;;;;;;;22.90;99.90;;;;;;4211199;28;19993;-62
2022/09/07 08:24:23;;;;;;;;;;;22.80;99.90;;;;;;4209034;28;20374;-63
2022/09/07 08:26:28;;;;;;;;;;;23.20;99.90;;;;;;4197699;28;19934;-63
2022/09/07 08:28:32;;;;;;;;;;;23.20;99.90;;;;;;4209906;28;20034;-62
2022/09/07 08:30:37;;;;;;;;;;;23.50;99.90;;;;;;4212786;28;19964;-62
2022/09/07 08:32:39;;;;;;;;;;;23.70;99.90;;;;;;4214221;28;20391;-62
2022/09/07 08:34:43;;;;;;;;;;;23.90;99.90;;;;;;4214363;28;19958;-62
2022/09/07 08:36:56;;;;;;;;;;;24.00;99.90;;;;;;4224378;28;19973;-62
2022/09/07 08:39:00;;;;;;;;;;;24.00;99.90;;;;;;4210775;28;19950;-62
2022/09/07 08:41:16;;;;;;;;;;;24.10;99.90;;;;;;4212838;28;19977;-62
2022/09/07 08:43:18;;;;;;;;;;;24.20;99.90;;;;;;4212928;28;19924;-61
2022/09/07 08:45:32;;;;;;;;;;;24.20;99.90;;;;;;4214170;28;19928;-62
2022/09/07 08:47:41;;;;;;;;;;;24.40;99.90;;;;;;4213628;28;19977;-62
2022/09/07 08:49:47;;;;;;;;;;;24.70;99.90;;;;;;4203933;28;19933;-62
2022/09/07 08:52:01;;;;;;;;;;;24.90;99.90;;;;;;4209433;28;19971;-62
2022/09/07 08:54:18;;;;;;;;;;;25.00;99.90;;;;;;4213569;28;20345;-62
2022/09/07 08:56:23;;;;;;;;;;;25.10;99.90;;;;;;4210258;28;20436;-62
2022/09/07 08:58:52;;;;;;;;;;;25.10;99.90;;;;;;4213490;28;19924;-62
2022/09/07 09:00:54;;;;;;;;;;;24.90;99.90;;;;;;4213966;28;19928;-62
2022/09/07 09:03:21;;;;;;;;;;;25.10;99.90;;;;;;4213634;28;19924;-61
2022/09/07 09:05:47;;;;;;;;;;;25.30;99.90;;;;;;4210642;27;19925;-61
2022/09/07 09:07:53;;;;;;;;;;;25.50;99.90;;;;;;4201857;28;19970;-61
2022/09/07 09:10:11;;;;;;;;;;;25.80;99.90;;;;;;4207797;28;20451;-62
2022/09/07 09:12:28;;;;;;;;;;;25.80;99.90;;;;;;4212817;28;20405;-61
2022/09/07 09:14:37;;;;;;;;;;;25.30;99.90;;;;;;4206216;28;19928;-61
2022/09/07 09:16:42;;;;;;;;;;;25.80;99.90;;;;;;4210825;28;19924;-61
2022/09/07 09:18:59;;;;;;;;;;;25.80;99.90;;;;;;4213808;28;19970;-62
2022/09/07 09:21:01;;;;;;;;;;;26.00;99.90;;;;;;4213911;28;19928;-62
2022/09/07 09:23:11;;;;;;;;;;;26.40;99.90;;;;;;4208337;28;19924;-62
2022/09/07 09:25:30;;;;;;;;;;;26.30;99.90;;;;;;4203412;28;19924;-61
2022/09/07 09:27:32;;;;;;;;;;;26.40;99.90;;;;;;4206179;28;19959;-61
2022/09/07 09:29:35;;;;;;;;;;;26.70;99.90;;;;;;4212763;28;20310;-62
2022/09/07 09:31:38;;;;;;;;;;;26.70;99.90;;;;;;4209236;28;19957;-61
2022/09/07 09:33:41;;;;;;;;;;;27.00;99.90;;;;;;4222689;28;20019;-62
2022/09/07 09:35:44;;;;;;;;;;;27.00;99.90;;;;;;4212994;28;19924;-62
2022/09/07 09:37:46;;;;;;;;;;;27.30;99.90;;;;;;4210430;28;20037;-61
2022/09/07 09:39:56;;;;;;;;;;;26.90;99.90;;;;;;4208708;28;19928;-62
2022/09/07 09:42:10;;;;;;;;;;;26.60;99.90;;;;;;4209652;28;19973;-61
2022/09/07 09:44:14;;;;;;;;;;;26.90;99.90;;;;;;4213365;28;19924;-62
2022/09/07 09:46:27;;;;;;;;;;;27.00;99.90;;;;;;4213445;28;20454;-61
2022/09/07 09:48:35;;;;;;;;;;;27.10;99.90;;;;;;4210410;28;19924;-62
2022/09/07 09:50:54;;;;;;;;;;;27.20;99.90;;;;;;4206782;28;19963;-62
2022/09/07 09:53:26;;;;;;;;;;;27.30;99.90;;;;;;4207558;28;20411;-61
2022/09/07 09:55:39;;;;;;;;;;;27.40;99.90;;;;;;4212143;28;19931;-62
2022/09/07 09:57:45;;;;;;;;;;;26.80;99.90;;;;;;4213313;28;19924;-61
2022/09/07 10:00:13;;;;;;;;;;;26.80;99.90;;;;;;4211648;28;20299;-62
2022/09/07 10:02:29;;;;;;;;;;;27.30;99.90;;;;;;4205685;28;20092;-61
2022/09/07 10:04:51;;;;;;;;;;;27.80;99.90;;;;;;4209545;28;19928;-62
2022/09/07 10:06:54;;;;;;;;;;;27.80;99.90;;;;;;4199709;28;19928;-61
2022/09/07 10:08:57;;;;;;;;;;;28.00;99.90;;;;;;4202842;28;19928;-61
2022/09/07 10:11:02;;;;;;;;;;;28.10;99.90;;;;;;4207436;28;20031;-61
2022/09/07 10:13:07;;;;;;;;;;;27.80;99.90;;;;;;4210796;28;20005;-61
2022/09/07 10:15:23;;;;;;;;;;;27.70;99.90;;;;;;4206454;28;19928;-61
2022/09/07 10:17:27;;;;;;;;;;;28.00;99.90;;;;;;4211542;28;19928;-61
2022/09/07 10:19:35;;;;;;;;;;;28.40;99.90;;;;;;4211259;28;19924;-62
2022/09/07 10:21:38;;;;;;;;;;;27.90;99.90;;;;;;4209870;28;19927;-62
2022/09/07 10:23:40;;;;;;;;;;;28.30;99.90;;;;;;4211572;28;19978;-61
2022/09/07 10:25:43;;;;;;;;;;;28.60;99.90;;;;;;4202616;28;19928;-61
2022/09/07 10:27:45;;;;;;;;;;;28.90;99.90;;;;;;4204034;28;19929;-62
2022/09/07 10:29:47;;;;;;;;;;;29.10;99.90;;;;;;4214618;28;20430;-61
2022/09/07 10:31:52;;;;;;;;;;;29.30;99.90;;;;;;4212185;28;20508;-61
2022/09/07 10:33:54;;;;;;;;;;;28.90;99.90;;;;;;4212763;28;19927;-61
2022/09/07 10:36:19;;;;;;;;;;;29.10;99.90;;;;;;4203882;28;19955;-61
2022/09/07 10:38:23;;;;;;;;;;;29.30;99.90;;;;;;4209383;28;20372;-61
2022/09/07 10:40:40;;;;;;;;;;;29.20;99.90;;;;;;4198564;28;19954;-62
2022/09/07 10:42:49;;;;;;;;;;;29.70;99.90;;;;;;4209626;28;20018;-61
2022/09/07 10:45:17;;;;;;;;;;;29.70;99.90;;;;;;4207492;28;19975;-61
2022/09/07 10:47:30;;;;;;;;;;;29.60;99.90;;;;;;4207960;28;19932;-61
2022/09/07 10:49:37;;;;;;;;;;;29.50;99.90;;;;;;4196234;28;19964;-61
2022/09/07 10:52:07;;;;;;;;;;;29.00;99.90;;;;;;4204726;28;19953;-61
2022/09/07 10:54:15;;;;;;;;;;;28.90;99.90;;;;;;4212457;28;20326;-60
2022/09/07 10:56:41;;;;;;;;;;;28.40;99.90;;;;;;4211236;28;20299;-61
2022/09/07 10:59:07;;;;;;;;;;;28.70;99.90;;;;;;4211951;28;19951;-62
2022/09/07 11:01:13;;;;;;;;;;;28.70;99.90;;;;;;4212166;28;19928;-61
2022/09/07 11:03:45;;;;;;;;;;;28.10;99.90;;;;;;4212433;28;19932;-61
2022/09/07 11:06:03;;;;;;;;;;;28.70;99.90;;;;;;4206385;28;19932;-61
2022/09/07 11:08:07;;;;;;;;;;;29.20;99.90;;;;;;4212237;28;20011;-61
2022/09/07 11:10:09;;;;;;;;;;;29.30;99.90;;;;;;4212274;28;20015;-61
2022/09/07 11:12:16;;;;;;;;;;;29.50;99.90;;;;;;4211213;28;19924;-62
2022/09/07 11:14:19;;;;;;;;;;;29.10;99.90;;;;;;4210604;28;19924;-61
2022/09/07 11:16:27;;;;;;;;;;;29.30;99.90;;;;;;4211766;28;19935;-61
2022/09/07 11:18:54;;;;;;;;;;;28.70;99.90;;;;;;4210711;28;20191;-61
2022/09/07 11:21:18;;;;;;;;;;;28.80;99.90;;;;;;4210784;28;19935;-61
2022/09/07 11:23:42;;;;;;;;;;;28.70;99.90;;;;;;4212023;28;20148;-61
2022/09/07 11:25:53;;;;;;;;;;;28.80;99.90;;;;;;4221873;28;19927;-60
2022/09/07 11:28:18;;;;;;;;;;;29.40;99.90;;;;;;4212036;28;20442;-61
2022/09/07 11:30:21;;;;;;;;;;;28.90;99.90;;;;;;4202787;28;20445;-61
2022/09/07 11:32:25;;;;;;;;;;;29.00;99.90;;;;;;4204935;28;19977;-61
2022/09/07 11:34:32;;;;;;;;;;;29.20;99.90;;;;;;4215392;28;19963;-61
2022/09/07 11:36:57;;;;;;;;;;;29.70;99.90;;;;;;4214325;28;20303;-61
2022/09/07 11:39:04;;;;;;;;;;;29.30;99.90;;;;;;4215257;28;19932;-60
2022/09/07 11:41:32;;;;;;;;;;;29.30;99.90;;;;;;4198699;28;20451;-60
2022/09/07 11:43:41;;;;;;;;;;;29.80;99.90;;;;;;4198357;28;19932;-60
2022/09/07 11:45:44;;;;;;;;;;;30.30;99.90;;;;;;4198760;28;19928;-60
2022/09/07 11:48:02;;;;;;;;;;;29.90;99.90;;;;;;4208727;28;19935;-61
2022/09/07 11:50:13;;;;;;;;;;;30.30;99.90;;;;;;4215303;28;19935;-61
2022/09/07 11:52:37;;;;;;;;;;;31.00;99.90;;;;;;4214929;28;19932;-60
2022/09/07 11:54:50;;;;;;;;;;;31.10;99.90;;;;;;4214931;28;19924;-60
2022/09/07 11:56:56;;;;;;;;;;;29.90;99.90;;;;;;4215302;28;19935;-60
2022/09/07 11:59:31;;;;;;;;;;;30.20;99.90;;;;;;4214932;28;20387;-60
2022/09/07 12:01:56;;;;;;;;;;;29.90;99.90;;;;;;4211464;28;19924;-61
2022/09/07 12:04:16;;;;;;;;;;;30.20;99.90;;;;;;4214844;28;20432;-60
2022/09/07 12:06:23;;;;;;;;;;;30.00;99.90;;;;;;4214662;27;19974;-60
2022/09/07 12:08:33;;;;;;;;;;;30.10;99.90;;;;;;4214913;28;20024;-60
2022/09/07 12:10:50;;;;;;;;;;;29.90;99.90;;;;;;4214947;28;19928;-60
2022/09/07 12:12:55;;;;;;;;;;;29.40;99.90;;;;;;4214808;28;19977;-61
2022/09/07 12:15:16;;;;;;;;;;;29.70;99.90;;;;;;4214427;28;19928;-61
2022/09/07 12:17:17;;;;;;;;;;;30.30;99.90;;;;;;4214390;28;19993;-60
2022/09/07 12:19:23;;;;;;;;;;;30.20;99.90;;;;;;4214957;28;20044;-60
2022/09/07 12:21:27;;;;;;;;;;;29.90;99.90;;;;;;4221631;28;19961;-60
2022/09/07 12:23:30;;;;;;;;;;;30.30;99.90;;;;;;4231531;28;20586;-61
2022/09/07 12:25:34;;;;;;;;;;;30.60;99.90;;;;;;4227998;27;20018;-60